createdAt,value
2018-05-06T00:01:57.878Z,15.30
2018-05-06T00:04:24.449Z,15.30
2018-05-06T00:06:51.015Z,15.40
2018-05-06T00:09:17.521Z,15.50
2018-05-06T00:11:44.035Z,15.50
2018-05-06T00:14:10.621Z,15.60
2018-05-06T00:16:37.191Z,15.60
2018-05-06T00:19:03.800Z,15.70
2018-05-06T00:21:30.333Z,15.70
2018-05-06T00:23:56.864Z,15.70
2018-05-06T00:26:23.373Z,15.70
2018-05-06T00:28:49.904Z,15.70
2018-05-06T00:31:16.426Z,15.70
2018-05-06T00:33:43.705Z,15.60
2018-05-06T00:36:10.224Z,15.60
2018-05-06T00:38:36.758Z,15.60
2018-05-06T00:41:04.115Z,15.40
2018-05-06T00:43:31.403Z,15.30
2018-05-06T00:50:59.455Z,15.20
2018-05-06T00:53:26.006Z,15.10
2018-05-06T00:55:53.287Z,14.90
2018-05-06T00:58:20.388Z,14.90
2018-05-06T01:00:47.000Z,14.90
2018-05-06T01:03:13.541Z,14.90
2018-05-06T01:05:40.108Z,14.80
2018-05-06T01:08:06.626Z,14.70
2018-05-06T01:10:33.985Z,14.60
2018-05-06T01:13:00.531Z,14.50
2018-05-06T01:15:27.821Z,14.30
2018-05-06T01:17:54.371Z,14.30
2018-05-06T01:20:20.921Z,14.30
2018-05-06T01:22:47.478Z,14.20
2018-05-06T01:25:14.009Z,14.10
2018-05-06T01:27:40.547Z,14.10
2018-05-06T01:30:07.080Z,14.00
2018-05-06T01:32:33.647Z,14.00
2018-05-06T01:35:00.997Z,14.00
2018-05-06T01:37:27.530Z,14.00
2018-05-06T01:39:54.048Z,14.00
2018-05-06T01:42:20.586Z,13.90
2018-05-06T01:44:47.130Z,13.80
2018-05-06T01:47:13.667Z,13.70
2018-05-06T01:49:40.180Z,13.70
2018-05-06T01:52:06.723Z,13.60
2018-05-06T01:54:33.386Z,13.60
2018-05-06T01:57:00.704Z,13.50
2018-05-06T01:59:27.236Z,13.40
2018-05-06T02:01:54.546Z,13.30
2018-05-06T02:04:21.817Z,13.20
2018-05-06T02:06:48.353Z,13.20
2018-05-06T02:09:14.867Z,13.10
2018-05-06T02:11:42.132Z,13.00
2018-05-06T02:14:08.649Z,13.00
2018-05-06T02:16:35.924Z,13.10
2018-05-06T02:19:02.445Z,13.00
2018-05-06T02:21:29.705Z,13.00
2018-05-06T02:23:56.971Z,13.00
2018-05-06T02:26:23.521Z,13.00
2018-05-06T02:28:50.099Z,12.90
2018-05-06T02:31:16.607Z,12.90
2018-05-06T02:33:43.125Z,12.80
2018-05-06T02:36:09.681Z,12.70
2018-05-06T02:38:36.192Z,12.70
2018-05-06T02:41:02.757Z,12.70
2018-05-06T02:43:29.304Z,12.60
2018-05-06T02:45:55.856Z,12.60
2018-05-06T02:48:22.354Z,12.60
2018-05-06T02:50:48.928Z,12.60
2018-05-06T02:53:15.531Z,12.60
2018-05-06T02:55:42.046Z,12.60
2018-05-06T02:58:08.589Z,12.60
2018-05-06T03:00:35.098Z,12.50
2018-05-06T03:03:01.648Z,12.40
2018-05-06T03:05:28.979Z,12.40
2018-05-06T03:07:55.520Z,12.30
2018-05-06T03:10:22.782Z,12.30
2018-05-06T03:12:49.316Z,12.30
2018-05-06T03:15:15.839Z,12.20
2018-05-06T03:17:43.155Z,12.10
2018-05-06T03:20:09.682Z,12.20
2018-05-06T03:22:36.987Z,12.20
2018-05-06T03:25:03.511Z,12.10
2018-05-06T03:27:30.798Z,12.10
2018-05-06T03:29:57.411Z,12.10
2018-05-06T03:32:25.645Z,12.00
2018-05-06T03:34:52.208Z,12.00
2018-05-06T03:37:18.744Z,12.00
2018-05-06T03:39:45.312Z,11.90
2018-05-06T03:42:11.832Z,11.90
2018-05-06T03:44:38.383Z,11.90
2018-05-06T03:47:04.918Z,11.90
2018-05-06T03:49:31.463Z,11.80
2018-05-06T03:51:58.025Z,11.80
2018-05-06T03:54:24.623Z,11.80
2018-05-06T03:57:03.920Z,11.80
2018-05-06T03:59:42.513Z,11.70
2018-05-06T04:05:13.130Z,11.80
2018-05-06T04:07:39.642Z,11.80
2018-05-06T04:10:06.188Z,11.90
2018-05-06T04:12:33.450Z,11.90
2018-05-06T04:15:00.709Z,11.80
2018-05-06T04:17:27.269Z,11.80
2018-05-06T04:19:53.838Z,11.80
2018-05-06T04:22:20.404Z,11.70
2018-05-06T04:24:47.717Z,11.80
2018-05-06T04:27:14.275Z,11.80
2018-05-06T04:29:40.841Z,11.80
2018-05-06T04:32:08.087Z,11.90
2018-05-06T04:34:34.595Z,11.80
2018-05-06T04:37:01.138Z,12.00
2018-05-06T04:39:27.740Z,12.00
2018-05-06T04:41:54.264Z,12.10
2018-05-06T04:44:20.781Z,12.20
2018-05-06T04:46:47.373Z,12.20
2018-05-06T04:49:14.642Z,12.40
2018-05-06T04:51:41.185Z,12.40
2018-05-06T04:54:08.441Z,12.60
2018-05-06T04:56:34.982Z,12.60
2018-05-06T04:59:02.236Z,12.80
2018-05-06T05:01:29.536Z,12.90
2018-05-06T05:03:56.053Z,12.80
2018-05-06T05:06:23.415Z,12.90
2018-05-06T05:08:49.954Z,13.00
2018-05-06T05:11:16.504Z,13.10
2018-05-06T05:13:43.056Z,13.10
2018-05-06T05:16:09.550Z,13.10
2018-05-06T05:18:36.075Z,13.20
2018-05-06T05:21:02.610Z,13.30
2018-05-06T05:23:29.186Z,13.40
2018-05-06T05:25:56.447Z,13.50
2018-05-06T05:28:23.000Z,13.50
2018-05-06T05:30:49.559Z,13.60
2018-05-06T05:33:16.837Z,13.80
2018-05-06T05:35:43.402Z,13.80
2018-05-06T05:38:10.676Z,14.00
2018-05-06T05:40:37.265Z,14.00
2018-05-06T05:43:03.814Z,14.00
2018-05-06T05:45:30.374Z,14.10
2018-05-06T05:47:57.769Z,14.30
2018-05-06T05:50:24.325Z,14.30
2018-05-06T05:52:51.737Z,14.40
2018-05-06T05:55:18.615Z,14.60
2018-05-06T05:57:45.504Z,14.60
2018-05-06T06:00:12.277Z,14.70
2018-05-06T06:02:39.015Z,14.80
2018-05-06T06:05:07.042Z,14.80
2018-05-06T06:07:33.965Z,14.90
2018-05-06T06:10:00.576Z,14.90
2018-05-06T06:12:27.304Z,15.00
2018-05-06T06:14:53.857Z,15.10
2018-05-06T06:17:20.421Z,15.10
2018-05-06T06:19:47.403Z,15.20
2018-05-06T06:22:14.686Z,15.40
2018-05-06T06:24:42.070Z,15.50
2018-05-06T06:27:08.809Z,15.50
2018-05-06T06:29:35.371Z,15.60
2018-05-06T06:32:02.002Z,15.70
2018-05-06T06:34:28.813Z,15.70
2018-05-06T06:36:56.357Z,15.70
2018-05-06T06:39:24.131Z,15.90
2018-05-06T06:41:51.657Z,16.00
2018-05-06T06:44:18.259Z,15.90
2018-05-06T06:46:52.012Z,16.00
2018-05-06T06:49:32.181Z,16.00
2018-05-06T06:52:16.906Z,16.10
2018-05-06T06:54:51.111Z,16.00
2018-05-06T06:57:27.670Z,16.00
2018-05-06T07:00:02.860Z,16.10
2018-05-06T07:02:35.356Z,16.20
2018-05-06T07:05:02.396Z,16.40
2018-05-06T07:07:29.683Z,16.60
2018-05-06T07:10:02.186Z,16.60
2018-05-06T07:12:32.503Z,16.60
2018-05-06T07:14:59.913Z,16.60
2018-05-06T07:17:27.190Z,16.70
2018-05-06T07:19:54.672Z,16.70
2018-05-06T07:22:27.271Z,17.20
2018-05-06T07:24:55.445Z,17.10
2018-05-06T07:27:27.588Z,17.10
2018-05-06T07:29:54.421Z,17.10
2018-05-06T07:32:21.678Z,17.30
2018-05-06T07:34:53.641Z,17.30
2018-05-06T07:37:25.874Z,17.60
2018-05-06T07:40:00.109Z,17.60
2018-05-06T07:42:33.227Z,17.50
2018-05-06T07:45:00.100Z,17.50
2018-05-06T07:47:27.074Z,17.70
2018-05-06T07:50:00.129Z,17.70
2018-05-06T07:52:27.857Z,18.10
2018-05-06T07:54:54.381Z,18.00
2018-05-06T07:57:22.740Z,17.80
2018-05-06T07:59:53.751Z,18.00
2018-05-06T08:02:22.711Z,18.30
2018-05-06T08:04:49.316Z,18.60
2018-05-06T08:07:16.995Z,18.70
2018-05-06T08:09:43.574Z,18.70
2018-05-06T08:12:10.226Z,19.20
2018-05-06T08:14:37.577Z,19.30
2018-05-06T08:17:06.989Z,19.30
2018-05-06T08:19:33.718Z,19.50
2018-05-06T08:22:01.355Z,20.10
2018-05-06T08:24:28.056Z,20.00
2018-05-06T08:26:54.742Z,19.40
2018-05-06T08:29:22.322Z,19.60
2018-05-06T08:31:51.745Z,20.10
2018-05-06T08:34:19.287Z,20.60
2018-05-06T08:36:45.893Z,20.60
2018-05-06T08:39:12.492Z,20.90
2018-05-06T08:41:39.086Z,21.30
2018-05-06T08:44:05.700Z,21.50
2018-05-06T08:46:32.288Z,21.30
2018-05-06T08:49:03.925Z,21.30
2018-05-06T08:51:35.302Z,20.90
2018-05-06T08:54:01.803Z,21.90
2018-05-06T08:56:28.334Z,22.10
2018-05-06T08:58:54.971Z,22.10
2018-05-06T09:01:24.678Z,22.30
2018-05-06T09:04:04.865Z,22.10
2018-05-06T09:06:32.082Z,22.00
2018-05-06T09:08:59.470Z,23.20
2018-05-06T09:11:26.130Z,23.20
2018-05-06T09:13:55.451Z,23.90
2018-05-06T09:16:27.303Z,23.80
2018-05-06T09:18:56.551Z,24.50
2018-05-06T09:21:23.265Z,24.50
2018-05-06T09:23:49.817Z,25.60
2018-05-06T09:26:16.335Z,27.50
2018-05-06T09:28:43.124Z,27.90
2018-05-06T09:31:14.779Z,28.60
2018-05-06T09:33:45.617Z,27.80
2018-05-06T09:36:12.393Z,27.10
2018-05-06T09:38:38.940Z,27.40
2018-05-06T09:41:05.459Z,27.00
2018-05-06T09:43:31.969Z,26.70
2018-05-06T09:46:03.172Z,25.80
2018-05-06T09:48:36.015Z,28.00
2018-05-06T09:51:02.801Z,28.00
2018-05-06T09:53:29.350Z,27.80
2018-05-06T09:55:56.647Z,27.70
2018-05-06T09:58:23.909Z,28.80
2018-05-06T10:00:50.473Z,28.70
2018-05-06T10:03:17.005Z,28.90
2018-05-06T10:05:43.532Z,27.30
2018-05-06T10:08:10.151Z,28.40
2018-05-06T10:10:36.710Z,27.80
2018-05-06T10:13:03.282Z,27.10
2018-05-06T10:15:29.847Z,27.70
2018-05-06T10:17:56.358Z,28.20
2018-05-06T10:20:22.902Z,27.70
2018-05-06T10:22:49.496Z,28.40
2018-05-06T10:25:16.072Z,27.80
2018-05-06T10:27:42.616Z,28.20
2018-05-06T10:30:09.182Z,28.60
2018-05-06T10:32:35.722Z,27.50
2018-05-06T10:35:02.247Z,28.20
2018-05-06T10:37:29.610Z,28.80
2018-05-06T10:39:56.171Z,28.70
2018-05-06T10:42:22.823Z,29.80
2018-05-06T10:44:49.403Z,29.90
2018-05-06T10:47:15.898Z,30.20
2018-05-06T10:49:42.504Z,30.80
2018-05-06T10:52:09.102Z,30.00
2018-05-06T10:54:35.616Z,30.50
2018-05-06T10:57:02.140Z,29.60
2018-05-06T10:59:28.716Z,30.50
2018-05-06T11:01:56.003Z,31.00
2018-05-06T11:04:22.853Z,30.90
2018-05-06T11:06:49.481Z,30.90
2018-05-06T11:09:16.079Z,30.50
2018-05-06T11:11:42.658Z,30.50
2018-05-06T11:14:09.288Z,30.60
2018-05-06T11:16:35.800Z,31.80
2018-05-06T11:19:03.161Z,31.80
2018-05-06T11:21:30.441Z,31.40
2018-05-06T11:23:56.972Z,31.30
2018-05-06T11:26:23.502Z,29.70
2018-05-06T11:28:50.120Z,30.40
2018-05-06T11:31:17.381Z,32.20
2018-05-06T11:33:44.685Z,30.70
2018-05-06T11:36:11.220Z,30.60
2018-05-06T11:38:38.499Z,32.80
2018-05-06T11:41:05.146Z,32.80
2018-05-06T11:43:31.732Z,32.30
2018-05-06T11:45:58.266Z,32.80
2018-05-06T11:48:24.820Z,32.90
2018-05-06T11:50:51.475Z,32.10
2018-05-06T11:53:18.025Z,32.20
2018-05-06T11:55:44.571Z,31.30
2018-05-06T11:58:11.854Z,31.20
2018-05-06T12:00:38.372Z,31.20
2018-05-06T12:03:04.973Z,32.50
2018-05-06T12:05:31.553Z,31.10
2018-05-06T12:07:58.110Z,32.50
2018-05-06T12:10:24.688Z,33.60
2018-05-06T12:12:51.220Z,32.30
2018-05-06T12:15:17.840Z,30.80
2018-05-06T12:17:44.374Z,32.50
2018-05-06T12:20:10.920Z,33.00
2018-05-06T12:22:37.449Z,33.10
2018-05-06T12:25:03.976Z,32.60
2018-05-06T12:27:30.934Z,32.70
2018-05-06T12:29:57.525Z,31.20
2018-05-06T12:32:24.085Z,31.90
2018-05-06T12:34:50.736Z,32.00
2018-05-06T12:37:17.302Z,31.50
2018-05-06T12:39:43.826Z,31.10
2018-05-06T12:42:11.745Z,30.50
2018-05-06T12:44:38.293Z,30.50
2018-05-06T12:47:04.889Z,30.40
2018-05-06T12:49:31.492Z,29.80
2018-05-06T12:51:58.061Z,29.30
2018-05-06T12:54:24.569Z,28.70
2018-05-06T12:56:51.105Z,28.20
2018-05-06T12:59:18.394Z,26.80
2018-05-06T13:01:45.656Z,27.00
2018-05-06T13:04:13.048Z,27.30
2018-05-06T13:06:39.605Z,27.30
2018-05-06T13:09:06.212Z,27.50
2018-05-06T13:11:32.796Z,27.30
2018-05-06T13:13:59.340Z,27.80
2018-05-06T13:16:25.897Z,27.60
2018-05-06T13:18:52.416Z,27.60
2018-05-06T13:21:18.953Z,26.90
2018-05-06T13:23:45.443Z,26.80
2018-05-06T13:26:11.994Z,26.50
2018-05-06T13:28:38.547Z,26.60
2018-05-06T13:31:05.184Z,26.60
2018-05-06T13:33:32.488Z,26.20
2018-05-06T13:35:59.004Z,26.20
2018-05-06T13:38:26.335Z,25.50
2018-05-06T13:40:53.104Z,25.50
2018-05-06T13:43:19.654Z,25.60
2018-05-06T13:45:46.184Z,25.50
2018-05-06T13:48:12.732Z,25.40
2018-05-06T13:50:39.388Z,25.70
2018-05-06T13:53:05.987Z,25.70
2018-05-06T13:55:33.292Z,25.40
2018-05-06T13:57:59.795Z,25.40
2018-05-06T14:00:26.333Z,25.10
2018-05-06T14:02:53.702Z,25.40
2018-05-06T14:05:21.517Z,25.30
2018-05-06T14:07:48.174Z,25.30
2018-05-06T14:10:15.529Z,25.20
2018-05-06T14:12:46.115Z,25.20
2018-05-06T14:15:12.668Z,25.20
2018-05-06T14:17:39.224Z,25.20
2018-05-06T14:20:05.873Z,25.30
2018-05-06T14:22:34.195Z,25.20
2018-05-06T14:25:00.796Z,25.20
2018-05-06T14:27:27.323Z,25.30
2018-05-06T14:29:54.674Z,25.00
2018-05-06T14:32:21.932Z,25.10
2018-05-06T14:34:49.226Z,25.40
2018-05-06T14:37:15.802Z,25.30
2018-05-06T14:39:43.113Z,25.20
2018-05-06T14:42:09.711Z,25.20
2018-05-06T14:44:36.241Z,25.00
2018-05-06T14:47:15.498Z,24.60
2018-05-06T14:49:42.029Z,24.60
2018-05-06T14:52:09.720Z,24.60
2018-05-06T14:54:36.363Z,24.60
2018-05-06T14:57:02.978Z,25.00
2018-05-06T14:59:29.550Z,25.00
2018-05-06T15:01:56.095Z,25.10
2018-05-06T15:04:22.681Z,25.00
2018-05-06T15:06:49.283Z,25.00
2018-05-06T15:09:15.862Z,24.60
2018-05-06T15:11:42.403Z,24.30
2018-05-06T15:14:09.024Z,24.00
2018-05-06T15:16:35.627Z,23.70
2018-05-06T15:19:02.206Z,23.80
2018-05-06T15:21:28.769Z,23.80
2018-05-06T15:23:55.391Z,23.70
2018-05-06T15:26:21.969Z,23.80
2018-05-06T15:28:48.559Z,23.80
2018-05-06T15:31:15.115Z,23.80
2018-05-06T15:33:41.699Z,23.60
2018-05-06T15:36:08.244Z,23.70
2018-05-06T15:38:34.801Z,23.70
2018-05-06T15:41:01.400Z,23.60
2018-05-06T15:43:27.954Z,23.50
2018-05-06T15:45:55.311Z,23.40
2018-05-06T15:48:22.627Z,23.50
2018-05-06T15:50:49.174Z,23.50
2018-05-06T15:53:16.547Z,23.30
2018-05-06T15:55:43.084Z,23.20
2018-05-06T15:58:10.414Z,23.20
2018-05-06T16:00:37.205Z,23.20
2018-05-06T16:03:15.789Z,23.30
2018-05-06T16:05:42.323Z,23.20
2018-05-06T16:08:08.906Z,23.00
2018-05-06T16:10:35.450Z,23.10
2018-05-06T16:13:02.061Z,22.90
2018-05-06T16:15:28.590Z,22.80
2018-05-06T16:17:55.271Z,22.70
2018-05-06T16:20:21.827Z,22.60
2018-05-06T16:22:48.397Z,22.40
2018-05-06T16:25:15.029Z,22.30
2018-05-06T16:27:41.552Z,22.40
2018-05-06T16:30:08.061Z,22.30
2018-05-06T16:32:34.631Z,22.20
2018-05-06T16:35:01.157Z,22.10
2018-05-06T16:37:28.064Z,22.00
2018-05-06T16:39:54.667Z,22.00
2018-05-06T16:42:22.041Z,22.00
2018-05-06T16:44:51.695Z,21.90
2018-05-06T16:47:22.027Z,21.90
2018-05-06T16:49:55.625Z,21.60
2018-05-06T16:52:26.355Z,21.60
2018-05-06T16:54:53.086Z,21.60
2018-05-06T16:57:19.744Z,21.50
2018-05-06T16:59:46.335Z,21.40
2018-05-06T17:02:12.943Z,21.40
2018-05-06T17:04:39.523Z,21.30
2018-05-06T17:07:06.082Z,21.20
2018-05-06T17:09:32.621Z,21.10
2018-05-06T17:11:59.414Z,21.10
2018-05-06T17:14:26.062Z,21.00
2018-05-06T17:16:52.673Z,20.90
2018-05-06T17:19:19.273Z,20.80
2018-05-06T17:21:45.903Z,20.70
2018-05-06T17:24:12.504Z,20.60
2018-05-06T17:26:39.171Z,20.50
2018-05-06T17:29:05.778Z,20.30
2018-05-06T17:31:32.349Z,20.20
2018-05-06T17:33:59.121Z,20.00
2018-05-06T17:36:25.734Z,19.90
2018-05-06T17:38:52.333Z,19.80
2018-05-06T17:41:18.920Z,19.70
2018-05-06T17:43:45.541Z,19.50
2018-05-06T17:46:12.096Z,19.40
2018-05-06T17:48:38.672Z,19.20
2018-05-06T17:51:05.964Z,19.00
2018-05-06T17:53:32.525Z,19.00
2018-05-06T17:55:59.882Z,18.90
2018-05-06T17:58:26.454Z,18.90
2018-05-06T18:00:53.727Z,18.80
2018-05-06T18:03:20.363Z,18.70
2018-05-06T18:05:46.975Z,18.70
2018-05-06T18:08:14.309Z,18.50
2018-05-06T18:10:40.845Z,18.50
2018-05-06T18:13:07.413Z,18.40
2018-05-06T18:15:33.984Z,18.30
2018-05-06T18:18:00.546Z,18.20
2018-05-06T18:20:27.104Z,18.10
2018-05-06T18:22:54.440Z,18.00
2018-05-06T18:25:20.971Z,18.00
2018-05-06T18:27:47.524Z,18.00
2018-05-06T18:30:14.036Z,17.90
2018-05-06T18:32:40.617Z,17.80
2018-05-06T18:35:07.202Z,17.60
2018-05-06T18:37:33.883Z,17.60
2018-05-06T18:40:01.193Z,17.50
2018-05-06T18:42:27.744Z,17.50
2018-05-06T18:44:54.287Z,17.40
2018-05-06T18:47:20.815Z,17.30
2018-05-06T18:49:48.095Z,17.20
2018-05-06T18:52:15.423Z,17.10
2018-05-06T18:54:42.003Z,17.10
2018-05-06T18:57:08.539Z,17.00
2018-05-06T18:59:35.126Z,17.00
2018-05-06T19:02:01.746Z,16.90
2018-05-06T19:04:28.293Z,16.80
2018-05-06T19:06:54.904Z,16.70
2018-05-06T19:09:21.443Z,16.60
2018-05-06T19:11:47.941Z,16.60
2018-05-06T19:14:14.478Z,16.50
2018-05-06T19:16:41.745Z,16.20
2018-05-06T19:19:09.056Z,16.10
2018-05-06T19:21:35.596Z,16.10
2018-05-06T19:24:02.151Z,16.00
2018-05-06T19:26:28.726Z,16.00
2018-05-06T19:28:55.277Z,15.90
2018-05-06T19:31:21.834Z,15.80
2018-05-06T19:33:49.143Z,15.70
2018-05-06T19:36:15.721Z,15.70
2018-05-06T19:38:42.283Z,15.60
2018-05-06T19:41:08.840Z,15.50
2018-05-06T19:43:39.459Z,15.50
2018-05-06T19:49:11.536Z,15.30
2018-05-06T19:51:39.908Z,15.30
2018-05-06T19:54:06.429Z,15.10
2018-05-06T19:56:32.975Z,15.00
2018-05-06T19:58:59.544Z,14.90
2018-05-06T20:01:26.103Z,14.80
2018-05-06T20:03:52.688Z,14.80
2018-05-06T20:06:19.212Z,14.70
2018-05-06T20:08:45.776Z,14.60
2018-05-06T20:11:12.306Z,14.50
2018-05-06T20:13:38.903Z,14.50
2018-05-06T20:16:05.487Z,14.40
2018-05-06T20:18:32.765Z,14.30
2018-05-06T20:20:59.316Z,14.30
2018-05-06T20:23:25.898Z,14.30
2018-05-06T20:25:52.448Z,14.20
2018-05-06T20:28:19.012Z,14.20
2018-05-06T20:30:45.610Z,14.20
2018-05-06T20:33:12.429Z,14.10
2018-05-06T20:35:39.639Z,14.00
2018-05-06T20:38:06.188Z,13.90
2018-05-06T20:40:32.734Z,13.90
2018-05-06T20:42:59.412Z,13.80
2018-05-06T20:45:25.969Z,13.80
2018-05-06T20:47:53.345Z,13.70
2018-05-06T20:50:19.930Z,13.70
2018-05-06T20:52:46.530Z,13.70
2018-05-06T20:55:13.187Z,13.70
2018-05-06T20:57:39.693Z,13.60
2018-05-06T21:00:07.002Z,13.40
2018-05-06T21:02:33.589Z,13.40
2018-05-06T21:05:00.120Z,13.40
2018-05-06T21:07:27.387Z,13.40
2018-05-06T21:09:53.908Z,13.30
2018-05-06T21:12:20.445Z,13.30
2018-05-06T21:14:46.989Z,13.30
2018-05-06T21:17:13.484Z,13.40
2018-05-06T21:19:40.052Z,13.40
2018-05-06T21:22:06.564Z,13.30
2018-05-06T21:24:33.096Z,13.30
2018-05-06T21:26:59.634Z,13.30
2018-05-06T21:29:26.147Z,13.30
2018-05-06T21:31:52.724Z,13.30
2018-05-06T21:34:19.987Z,13.20
2018-05-06T21:36:46.549Z,13.20
2018-05-06T21:39:13.134Z,13.20
2018-05-06T21:41:39.689Z,13.20
2018-05-06T21:44:06.216Z,13.20
2018-05-06T21:46:32.830Z,13.30
2018-05-06T21:48:59.408Z,13.30
2018-05-06T21:51:26.015Z,13.30
2018-05-06T21:53:52.604Z,13.30
2018-05-06T21:56:19.122Z,13.40
2018-05-06T21:58:45.705Z,13.30
2018-05-06T22:01:18.327Z,13.30
2018-05-06T22:03:45.663Z,13.30
2018-05-06T22:06:12.296Z,13.30
2018-05-06T22:08:38.847Z,13.20
2018-05-06T22:11:06.146Z,13.10
2018-05-06T22:13:32.675Z,13.10
2018-05-06T22:15:59.221Z,13.10
2018-05-06T22:18:25.750Z,13.10
2018-05-06T22:20:52.260Z,13.10
2018-05-06T22:23:18.800Z,13.00
2018-05-06T22:25:45.311Z,13.00
2018-05-06T22:28:12.570Z,12.90
2018-05-06T22:30:39.146Z,12.90
2018-05-06T22:33:05.680Z,12.90
2018-05-06T22:35:32.204Z,12.90
2018-05-06T22:37:58.729Z,12.80
2018-05-06T22:40:25.294Z,12.80
2018-05-06T22:42:51.853Z,12.70
2018-05-06T22:45:18.468Z,12.60
2018-05-06T22:47:45.004Z,12.60
2018-05-06T22:50:11.577Z,12.50
2018-05-06T22:52:38.146Z,12.50
2018-05-06T22:55:04.748Z,12.40
2018-05-06T22:57:31.437Z,12.30
2018-05-06T22:59:57.962Z,12.30
2018-05-06T23:02:24.542Z,12.30
2018-05-06T23:04:51.801Z,12.20
2018-05-06T23:07:18.336Z,12.20
2018-05-06T23:09:44.916Z,12.20
2018-05-06T23:12:11.463Z,12.10
2018-05-06T23:14:38.073Z,12.00
2018-05-06T23:17:04.571Z,12.00
2018-05-06T23:19:31.185Z,11.90
2018-05-06T23:21:57.710Z,11.80
2018-05-06T23:24:24.201Z,11.70
2018-05-06T23:26:50.719Z,11.70
2018-05-06T23:29:17.385Z,11.70
2018-05-06T23:31:43.844Z,11.60
2018-05-06T23:34:10.358Z,11.60
2018-05-06T23:36:36.891Z,11.50
2018-05-06T23:39:03.612Z,11.50
2018-05-06T23:41:30.157Z,11.50
2018-05-06T23:43:56.703Z,11.40
2018-05-06T23:46:23.273Z,11.50
2018-05-06T23:48:49.795Z,11.40
2018-05-06T23:51:17.053Z,11.40
2018-05-06T23:53:43.578Z,11.30
2018-05-06T23:56:10.115Z,11.30
2018-05-06T23:58:37.410Z,11.30
